Time;durP1;ratioP1;P1;durP2;ratioP2;P2;SDS_P1;SDS_P2;PMS_P1;PMS_P2;Temp;Humidity;BMP_temperature;BMP_pressure;BME280_temperature;BME280_humidity;BME280_pressure;Samples;Min_cycle;Max_cycle;Signal;HPM_P1;HPM_P2
2021/07/27 00:00:40;;;;;;;0.50;0.40;;;;;;;19.39;100.00;99932.63;5003560;28;20457;-78
2021/07/27 00:03:06;;;;;;;3.77;1.83;;;;;;;19.34;100.00;99924.00;5001557;28;20827;-78
2021/07/27 00:05:35;;;;;;;0.40;0.30;;;;;;;19.36;100.00;99930.13;5006259;28;20489;-78
2021/07/27 00:08:21;;;;;;;0.43;0.27;;;;;;;19.30;100.00;99924.31;5009753;28;20473;-78
2021/07/27 00:10:48;;;;;;;0.50;0.40;;;;;;;19.35;100.00;99930.25;4996838;28;20452;-78
2021/07/27 00:13:14;;;;;;;0.40;0.20;;;;;;;19.35;100.00;99935.66;5009594;28;20809;-78
2021/07/27 00:15:42;;;;;;;0.40;0.20;;;;;;;19.05;100.00;99944.00;4996194;28;21065;-78
2021/07/27 00:18:09;;;;;;;0.40;0.20;;;;;;;18.95;100.00;99935.72;5008427;28;21005;-78
2021/07/27 00:20:35;;;;;;;0.40;0.20;;;;;;;18.81;100.00;99941.19;5007415;28;20487;-78
2021/07/27 00:23:02;;;;;;;0.40;0.20;;;;;;;18.93;100.00;99935.84;4977657;28;20557;-79
2021/07/27 00:25:29;;;;;;;0.40;0.20;;;;;;;18.87;100.00;99941.63;5005200;28;20496;-79
2021/07/27 00:27:57;;;;;;;0.40;0.20;;;;;;;18.82;100.00;99943.78;5014323;28;20468;-81
2021/07/27 00:30:23;;;;;;;1.17;1.07;;;;;;;19.00;100.00;99955.13;4999531;28;20441;-76
2021/07/27 00:32:50;;;;;;;0.40;0.30;;;;;;;18.90;100.00;99951.31;5009186;28;20499;-78
2021/07/27 00:35:17;;;;;;;0.40;0.20;;;;;;;18.70;100.00;99946.44;4996484;28;20449;-78
2021/07/27 00:37:45;;;;;;;0.40;0.20;;;;;;;18.66;100.00;99958.38;5009006;28;20454;-78
2021/07/27 00:40:13;;;;;;;0.40;0.20;;;;;;;18.74;100.00;99953.34;5009550;28;20449;-78
2021/07/27 00:42:47;;;;;;;0.40;0.20;;;;;;;18.69;100.00;99955.47;4996516;28;20449;-78
2021/07/27 00:45:15;;;;;;;0.40;0.20;;;;;;;18.93;100.00;99959.22;5009625;28;20543;-78
2021/07/27 00:47:42;;;;;;;0.50;0.50;;;;;;;18.70;100.00;99967.97;5007321;28;20475;-78
2021/07/27 00:50:10;;;;;;;0.40;0.20;;;;;;;18.75;100.00;99966.69;5008482;28;20445;-79
2021/07/27 00:52:39;;;;;;;1.00;0.90;;;;;;;18.71;100.00;99969.69;5011830;28;20937;-79
2021/07/27 00:55:06;;;;;;;0.40;0.20;;;;;;;18.48;100.00;99965.81;5016163;28;20468;-78
2021/07/27 00:57:33;;;;;;;0.40;0.20;;;;;;;18.31;100.00;99964.25;5012320;28;20472;-78
2021/07/27 01:00:00;;;;;;;0.40;0.20;;;;;;;18.38;100.00;99967.41;5006696;28;20459;-79
2021/07/27 01:02:27;;;;;;;0.50;0.47;;;;;;;18.41;100.00;99961.81;5008277;28;20448;-78
2021/07/27 01:04:53;;;;;;;0.60;0.60;;;;;;;18.39;100.00;99956.53;5016912;28;20515;-78
2021/07/27 01:07:21;;;;;;;0.40;0.30;;;;;;;18.41;100.00;99956.44;5006973;28;20515;-78
2021/07/27 01:09:49;;;;;;;0.40;0.20;;;;;;;18.42;100.00;99956.31;5004431;28;20869;-78
2021/07/27 01:12:15;;;;;;;0.40;0.20;;;;;;;18.05;100.00;99960.56;5011958;28;20514;-78
2021/07/27 01:14:42;;;;;;;1.53;0.80;;;;;;;18.24;100.00;99955.72;5001913;28;20446;-78
2021/07/27 01:17:09;;;;;;;0.90;0.90;;;;;;;18.21;100.00;99958.59;4998486;28;20867;-78
2021/07/27 01:43:52;;;;;;;0.40;0.20;;;;;;;18.13;100.00;99969.00;5012629;28;20943;-78
2021/07/27 01:46:23;;;;;;;0.40;0.30;;;;;;;18.26;100.00;99963.69;5009172;28;20500;-78
2021/07/27 01:48:50;;;;;;;0.60;0.37;;;;;;;18.01;100.00;99967.97;5006099;28;20491;-78
2021/07/27 01:51:17;;;;;;;0.40;0.20;;;;;;;17.96;100.00;99970.09;5007077;28;20639;-78
2021/07/27 01:53:47;;;;;;;0.40;0.20;;;;;;;17.92;100.00;99962.31;4998045;28;20866;-78
2021/07/27 01:56:15;;;;;;;0.40;0.20;;;;;;;17.93;100.00;99966.72;4998286;28;20838;-78
2021/07/27 01:58:42;;;;;;;0.40;0.20;;;;;;;17.81;100.00;99960.28;5010374;28;20476;-78
2021/07/27 02:01:10;;;;;;;0.40;0.20;;;;;;;17.72;100.00;99960.91;5011995;28;20456;-78
2021/07/27 02:03:37;;;;;;;0.60;0.60;;;;;;;17.48;100.00;99950.69;5004774;28;20453;-78
2021/07/27 02:06:04;;;;;;;2.63;0.80;;;;;;;17.68;100.00;99962.00;5004981;28;20524;-78
2021/07/27 02:08:30;;;;;;;0.40;0.20;;;;;;;17.66;100.00;99962.09;5010325;28;20515;-78
2021/07/27 02:11:03;;;;;;;0.40;0.30;;;;;;;17.63;100.00;99956.06;5005597;28;20532;-78
2021/07/27 02:13:31;;;;;;;0.40;0.20;;;;;;;17.66;100.00;99956.72;4986831;28;20438;-78
2021/07/27 02:15:59;;;;;;;0.40;0.20;;;;;;;17.58;100.00;99947.44;4999019;28;20517;-78
2021/07/27 02:18:27;;;;;;;0.40;0.20;;;;;;;17.59;100.00;99962.59;5009985;28;20453;-78
2021/07/27 02:20:54;;;;;;;0.50;0.40;;;;;;;17.74;100.00;99959.84;5013036;28;20468;-78
2021/07/27 02:23:21;;;;;;;0.50;0.40;;;;;;;17.62;100.00;99967.78;5009922;28;20477;-78
2021/07/27 02:25:47;;;;;;;0.50;0.40;;;;;;;17.89;100.00;99955.31;5010668;28;20489;-78
2021/07/27 02:28:16;;;;;;;0.40;0.20;;;;;;;18.10;100.00;99961.16;5006342;28;20954;-78
2021/07/27 02:30:48;;;;;;;0.70;0.53;;;;;;;18.10;100.00;99957.59;5015313;28;20440;-79
2021/07/27 02:33:15;;;;;;;0.50;0.40;;;;;;;18.15;100.00;99963.53;5008116;28;20511;-78
2021/07/27 02:35:42;;;;;;;0.40;0.20;;;;;;;18.29;100.00;99963.47;5004972;28;20808;-78
2021/07/27 02:38:08;;;;;;;0.50;0.40;;;;;;;18.22;100.00;99957.63;5007618;28;20512;-78
2021/07/27 02:40:35;;;;;;;0.40;0.30;;;;;;;18.18;100.00;99961.50;5011200;28;20462;-79
2021/07/27 02:43:03;;;;;;;0.83;0.83;;;;;;;18.35;100.00;99961.22;5007366;28;20502;-78
2021/07/27 02:45:33;;;;;;;0.40;0.20;;;;;;;18.41;100.00;99956.44;5005370;28;20480;-78
2021/07/27 02:48:02;;;;;;;0.40;0.20;;;;;;;18.40;100.00;99952.88;5006370;28;20479;-78
2021/07/27 02:50:29;;;;;;;0.40;0.20;;;;;;;18.19;100.00;99948.91;5014485;28;20926;-78
2021/07/27 02:52:56;;;;;;;0.40;0.30;;;;;;;18.21;100.00;99947.81;5016518;28;20876;-78
2021/07/27 02:55:23;;;;;;;0.40;0.30;;;;;;;18.24;100.00;99944.97;5003357;28;20449;-78
2021/07/27 02:57:50;;;;;;;0.40;0.20;;;;;;;18.24;100.00;99942.28;5006292;28;20539;-78
2021/07/27 03:00:18;;;;;;;1.03;1.03;;;;;;;18.24;100.00;99949.47;5011116;28;20504;-78
2021/07/27 03:02:45;;;;;;;0.40;0.20;;;;;;;18.15;100.00;99950.94;5009649;28;20456;-78
2021/07/27 03:05:14;;;;;;;3.27;1.03;;;;;;;18.04;100.00;99946.25;4998593;28;20537;-78
2021/07/27 03:10:18;;;;;;;0.40;0.20;;;;;;;18.04;100.00;99953.44;5003772;28;20448;-78
2021/07/27 03:12:49;;;;;;;0.40;0.20;;;;;;;18.22;100.00;99960.31;5010930;28;20884;-78
2021/07/27 03:15:17;;;;;;;0.50;0.50;;;;;;;18.23;100.00;99950.44;4996400;28;20438;-78
2021/07/27 03:17:44;;;;;;;0.43;0.30;;;;;;;18.51;100.00;99952.16;5010870;28;20464;-78
2021/07/27 03:20:14;;;;;;;0.93;0.93;;;;;;;18.67;100.00;99954.72;5011889;28;20436;-78
2021/07/27 03:22:41;;;;;;;0.90;0.87;;;;;;;18.40;100.00;99955.56;5028223;28;20456;-78
2021/07/27 03:25:08;;;;;;;0.40;0.20;;;;;;;18.57;100.00;99958.00;5016438;28;20554;-78
2021/07/27 03:27:38;;;;;;;0.40;0.20;;;;;;;18.48;100.00;99957.75;5000953;28;20979;-78
2021/07/27 03:30:05;;;;;;;0.40;0.20;;;;;;;18.54;100.00;99958.22;5003458;28;20445;-78
2021/07/27 03:32:36;;;;;;;5.03;0.70;;;;;;;18.59;100.00;99960.59;5001531;28;20437;-78
2021/07/27 03:35:04;;;;;;;0.87;0.87;;;;;;;18.47;100.00;99958.69;5002548;28;20472;-78
2021/07/27 03:37:35;;;;;;;0.53;0.43;;;;;;;18.57;100.00;99963.38;5004668;28;20482;-78
2021/07/27 03:40:02;;;;;;;0.40;0.20;;;;;;;18.94;100.00;99960.94;4997656;28;20511;-78
2021/07/27 03:42:29;;;;;;;0.40;0.20;;;;;;;19.30;100.00;99953.94;5000052;28;20441;-78
2021/07/27 03:44:56;;;;;;;0.40;0.20;;;;;;;18.84;100.00;99958.00;5001663;28;20915;-78
2021/07/27 03:47:24;;;;;;;0.40;0.20;;;;;;;18.55;100.00;99954.53;5009492;28;21037;-80
2021/07/27 03:49:53;;;;;;;0.47;0.30;;;;;;;18.47;100.00;99958.69;4997899;28;20557;-78
2021/07/27 03:52:20;;;;;;;0.40;0.30;;;;;;;18.54;100.00;99963.59;5011577;28;20473;-78
2021/07/27 03:54:47;;;;;;;0.40;0.20;;;;;;;18.40;100.00;99960.94;4994685;28;20481;-79
2021/07/27 03:57:14;;;;;;;0.40;0.20;;;;;;;18.50;100.00;99954.00;5006319;28;21045;-78
2021/07/27 03:59:40;;;;;;;0.40;0.20;;;;;;;18.48;100.00;99966.69;5007200;28;20479;-78
2021/07/27 04:02:07;;;;;;;0.40;0.20;;;;;;;18.55;100.00;99959.94;5000770;28;20873;-78
2021/07/27 04:04:37;;;;;;;0.40;0.30;;;;;;;18.54;100.00;99971.66;5000360;28;20461;-77
2021/07/27 04:07:03;;;;;;;0.53;0.50;;;;;;;18.47;100.00;99962.25;5006003;28;20915;-78
2021/07/27 04:09:30;;;;;;;0.40;0.20;;;;;;;18.55;100.00;99965.31;5005894;28;20437;-78
2021/07/27 04:11:57;;;;;;;0.40;0.20;;;;;;;18.63;100.00;99972.88;4998347;28;20450;-78
2021/07/27 04:14:23;;;;;;;0.70;0.70;;;;;;;18.54;100.00;99965.41;5005485;28;20502;-78
2021/07/27 04:16:50;;;;;;;0.50;0.40;;;;;;;18.53;100.00;99961.88;5002058;28;20468;-78
2021/07/27 04:19:16;;;;;;;0.70;0.70;;;;;;;18.62;100.00;99952.28;5000537;28;20907;-79
2021/07/27 04:21:44;;;;;;;0.40;0.20;;;;;;;18.74;100.00;99959.56;5011294;28;20514;-79
2021/07/27 04:24:10;;;;;;;0.40;0.20;;;;;;;18.76;100.00;99967.56;4984522;28;20458;-78
2021/07/27 04:26:37;;;;;;;0.40;0.20;;;;;;;18.54;100.00;99968.97;5001460;28;20496;-79
2021/07/27 04:29:04;;;;;;;0.40;0.30;;;;;;;18.35;100.00;99960.38;4998915;28;20893;-78
2021/07/27 04:31:30;;;;;;;0.40;0.20;;;;;;;18.18;100.00;99966.88;5013125;28;20444;-79
2021/07/27 04:33:57;;;;;;;0.40;0.20;;;;;;;17.91;100.00;99971.34;5000461;28;20458;-79
2021/07/27 04:36:24;;;;;;;0.40;0.20;;;;;;;18.01;100.00;99964.41;5013093;28;20868;-79
2021/07/27 04:38:50;;;;;;;2.77;0.60;;;;;;;18.04;100.00;99970.44;5011527;28;20483;-79
2021/07/27 04:41:17;;;;;;;0.40;0.30;;;;;;;17.96;100.00;99966.56;5002760;28;20945;-79
2021/07/27 04:43:44;;;;;;;0.67;0.67;;;;;;;17.98;100.00;99960.09;4999044;28;20469;-76
2021/07/27 04:46:10;;;;;;;1.07;0.93;;;;;;;18.02;100.00;99961.63;4991890;28;20995;-76
2021/07/27 04:48:39;;;;;;;0.70;0.70;;;;;;;18.01;100.00;99965.28;5007192;28;20878;-79
2021/07/27 04:51:06;;;;;;;0.67;0.67;;;;;;;17.98;100.00;99965.47;4994800;28;20458;-75
2021/07/27 04:53:36;;;;;;;9.33;2.63;;;;;;;18.13;100.00;99971.69;4976168;28;20492;-76
2021/07/27 04:56:03;;;;;;;0.57;0.57;;;;;;;18.24;100.00;99960.25;5001215;28;20469;-75
2021/07/27 04:58:46;;;;;;;0.40;0.27;;;;;;;18.21;100.00;99961.28;4998271;28;20448;-76
2021/07/27 05:01:12;;;;;;;0.50;0.40;;;;;;;18.33;100.00;99975.75;5011214;28;20460;-76
2021/07/27 05:03:39;;;;;;;0.40;0.20;;;;;;;18.28;100.00;99975.22;5006788;28;20449;-76
2021/07/27 05:06:07;;;;;;;0.40;0.40;;;;;;;18.29;100.00;99966.19;5003312;28;20496;-77
2021/07/27 05:08:33;;;;;;;0.40;0.20;;;;;;;18.30;100.00;99970.59;4992603;28;20464;-76
2021/07/27 05:11:01;;;;;;;0.40;0.30;;;;;;;18.40;100.00;99968.16;4998225;28;20440;-76
2021/07/27 05:13:28;;;;;;;0.40;0.30;;;;;;;18.48;100.00;99966.69;5011504;28;20868;-77
2021/07/27 05:15:55;;;;;;;0.40;0.20;;;;;;;18.97;100.00;99979.56;4997006;28;20932;-76
2021/07/27 05:18:22;;;;;;;1.10;1.07;;;;;;;19.44;100.00;99973.56;4999840;28;20877;-77
2021/07/27 05:20:49;;;;;;;0.40;0.30;;;;;;;19.42;100.00;99966.56;4997587;28;20507;-76
2021/07/27 05:23:16;;;;;;;2.30;1.33;;;;;;;19.66;100.00;99964.00;4987821;28;20456;-76
2021/07/27 05:25:42;;;;;;;0.40;0.20;;;;;;;19.71;100.00;99967.22;4984638;28;21085;-77
2021/07/27 05:28:09;;;;;;;0.40;0.20;;;;;;;19.76;100.00;99970.47;5003268;28;20469;-76
2021/07/27 05:30:36;;;;;;;0.40;0.20;;;;;;;19.71;100.00;99972.63;4993220;28;20500;-76
2021/07/27 05:33:05;;;;;;;4.77;0.83;;;;;;;19.65;100.00;99973.94;5012950;28;20452;-76
2021/07/27 05:35:32;;;;;;;0.60;0.60;;;;;;;19.66;100.00;99972.09;5002341;28;20449;-76
2021/07/27 05:37:58;;;;;;;0.40;0.20;;;;;;;20.04;100.00;99963.94;5006474;28;20442;-77
2021/07/27 05:40:30;;;;;;;0.40;0.20;;;;;;;20.57;100.00;99973.50;5008290;28;20847;-78
2021/07/27 05:42:58;;;;;;;0.40;0.20;;;;;;;21.10;100.00;99978.50;5003865;28;20487;-77
2021/07/27 05:45:25;;;;;;;0.40;0.20;;;;;;;21.49;97.54;99967.31;5012982;28;20464;-76
2021/07/27 05:47:53;;;;;;;0.40;0.20;;;;;;;21.65;96.31;99968.78;4995031;28;20611;-76
2021/07/27 05:50:21;;;;;;;0.40;0.20;;;;;;;22.20;94.81;99958.94;4981655;28;20512;-77
2021/07/27 05:52:47;;;;;;;0.87;0.87;;;;;;;22.62;92.00;99963.53;5004518;28;20515;-77
2021/07/27 05:55:14;;;;;;;0.57;0.57;;;;;;;22.73;90.44;99963.47;5014239;28;20814;-77
2021/07/27 05:57:41;;;;;;;0.50;0.43;;;;;;;21.94;94.25;99969.19;5015219;28;20453;-77
2021/07/27 06:00:08;;;;;;;0.63;0.57;;;;;;;22.11;94.34;99960.56;5000964;28;20430;-76
2021/07/27 06:02:34;;;;;;;2.03;1.93;;;;;;;22.10;94.25;99973.25;5005325;28;20482;-77
2021/07/27 06:05:01;;;;;;;1.47;1.37;;;;;;;21.84;95.21;99978.03;5007622;28;20917;-77
2021/07/27 06:07:29;;;;;;;0.40;0.20;;;;;;;21.70;96.49;99969.31;5005214;28;20500;-77
2021/07/27 06:09:56;;;;;;;0.40;0.20;;;;;;;21.94;95.98;99978.16;4989296;28;20435;-77
2021/07/27 06:12:23;;;;;;;0.90;0.90;;;;;;;22.01;95.05;99983.91;5009809;28;20513;-76
2021/07/27 06:14:49;;;;;;;0.40;0.20;;;;;;;22.49;93.56;99989.94;4997528;28;20449;-76
2021/07/27 06:17:16;;;;;;;0.40;0.30;;;;;;;22.22;94.13;99975.94;5006221;28;20435;-77
2021/07/27 06:19:42;;;;;;;0.87;0.47;;;;;;;22.17;93.04;99979.88;4987513;28;20426;-77
2021/07/27 06:22:09;;;;;;;0.40;0.20;;;;;;;22.05;94.97;99986.28;5015059;28;20945;-77
2021/07/27 06:24:36;;;;;;;0.40;0.20;;;;;;;21.58;96.03;99988.22;5015031;28;20453;-77
2021/07/27 06:27:04;;;;;;;0.97;0.83;;;;;;;21.51;97.63;99981.56;5001981;28;21020;-77
2021/07/27 06:29:31;;;;;;;0.40;0.20;;;;;;;21.62;97.16;99986.13;4999497;28;20464;-78
2021/07/27 06:31:57;;;;;;;2.20;1.00;;;;;;;21.57;97.01;99980.22;5002793;28;20484;-77
2021/07/27 06:34:24;;;;;;;0.60;0.50;;;;;;;21.63;96.83;99974.31;5007152;28;20454;-77
2021/07/27 06:36:51;;;;;;;0.60;0.60;;;;;;;21.54;97.95;99973.22;4993981;28;20460;-76
2021/07/27 06:39:17;;;;;;;0.80;0.67;;;;;;;21.56;97.31;99983.91;5014058;28;21005;-77
2021/07/27 06:41:44;;;;;;;4.00;2.37;;;;;;;21.95;95.87;99988.00;5002356;28;20454;-78
2021/07/27 06:44:11;;;;;;;0.40;0.30;;;;;;;21.51;97.31;99992.38;5007612;28;20504;-77
2021/07/27 06:46:37;;;;;;;0.47;0.37;;;;;;;21.56;97.52;99986.63;5006781;28;20488;-77
2021/07/27 06:49:04;;;;;;;0.50;0.40;;;;;;;21.50;98.10;99993.38;4993856;28;20448;-77
2021/07/27 06:51:31;;;;;;;0.40;0.20;;;;;;;21.63;97.84;99989.69;5006459;28;20950;-78
2021/07/27 06:53:57;;;;;;;0.40;0.30;;;;;;;21.75;96.57;99994.13;4999963;28;20841;-77
2021/07/27 06:56:24;;;;;;;0.50;0.20;;;;;;;21.84;96.26;99990.69;4999818;28;20432;-79
2021/07/27 06:58:51;;;;;;;0.63;0.63;;;;;;;21.79;95.91;99985.66;4987328;28;20473;-78
2021/07/27 07:01:17;;;;;;;0.40;0.30;;;;;;;21.89;96.05;99986.63;5000874;28;20963;-79
2021/07/27 07:03:44;;;;;;;0.70;0.70;;;;;;;22.27;95.64;99993.53;4999930;28;20543;-77
2021/07/27 07:06:13;;;;;;;0.40;0.30;;;;;;;22.00;96.32;99985.78;5000863;28;20467;-77
2021/07/27 07:08:40;;;;;;;1.80;0.77;;;;;;;22.02;96.08;99996.47;5006988;28;20535;-77
2021/07/27 07:11:07;;;;;;;0.50;0.30;;;;;;;21.96;96.48;99989.72;5003109;28;20457;-77
2021/07/27 07:13:34;;;;;;;0.40;0.23;;;;;;;21.84;97.14;99991.56;5014174;28;20511;-76
2021/07/27 07:16:03;;;;;;;0.60;0.60;;;;;;;21.91;96.69;99989.22;4998261;28;20465;-77
2021/07/27 07:18:30;;;;;;;0.40;0.30;;;;;;;22.10;95.72;99996.75;4993114;28;20444;-76
2021/07/27 07:20:57;;;;;;;0.40;0.23;;;;;;;22.23;94.97;99997.47;5007077;28;21003;-77
2021/07/27 07:23:23;;;;;;;1.03;0.47;;;;;;;22.49;92.79;99997.19;5002931;28;20448;-76
2021/07/27 07:25:51;;;;;;;0.77;0.77;;;;;;;22.26;94.59;99991.81;4999356;28;20532;-77
2021/07/27 07:28:20;;;;;;;0.40;0.30;;;;;;;22.24;93.96;99985.66;5004950;28;20848;-77
2021/07/27 07:30:47;;;;;;;0.40;0.23;;;;;;;22.81;92.46;99999.91;5007479;28;20452;-76
2021/07/27 07:33:15;;;;;;;0.40;0.20;;;;;;;22.55;93.56;100002.94;4994266;28;20561;-77
2021/07/27 07:35:42;;;;;;;0.40;0.30;;;;;;;22.51;92.84;100006.91;5005610;28;20482;-77
2021/07/27 07:38:08;;;;;;;2.60;0.50;;;;;;;22.15;94.79;99999.94;5003545;28;20958;-77
2021/07/27 07:40:35;;;;;;;0.40;0.20;;;;;;;22.20;94.05;99999.56;4996973;28;20449;-77
2021/07/27 07:43:02;;;;;;;0.50;0.40;;;;;;;22.18;94.27;99996.97;5002796;28;20453;-77
2021/07/27 07:45:29;;;;;;;1.27;1.03;;;;;;;22.31;93.13;100003.13;4999351;28;20445;-76
2021/07/27 07:47:56;;;;;;;0.40;0.20;;;;;;;22.43;92.85;100004.81;5012584;28;21036;-77
2021/07/27 07:50:23;;;;;;;0.50;0.30;;;;;;;22.48;93.11;100012.59;5008881;28;20863;-77
2021/07/27 07:52:57;;;;;;;0.40;0.20;;;;;;;22.84;92.35;100011.38;5004041;28;20460;-77
2021/07/27 07:55:23;;;;;;;0.40;0.20;;;;;;;22.81;90.94;100003.50;4999293;28;20479;-76
2021/07/27 07:57:50;;;;;;;0.40;0.30;;;;;;;22.83;92.01;100014.22;5001828;28;20449;-77
2021/07/27 08:00:19;;;;;;;0.40;0.30;;;;;;;22.69;92.36;100010.78;4998994;28;20448;-77
2021/07/27 08:02:46;;;;;;;0.50;0.40;;;;;;;23.43;90.07;100008.13;4999898;28;20441;-78
2021/07/27 08:05:12;;;;;;;0.40;0.20;;;;;;;23.88;86.99;100003.28;5012393;28;21132;-77
2021/07/27 08:07:39;;;;;;;0.60;0.60;;;;;;;23.72;86.80;100002.94;5000005;28;20918;-77
2021/07/27 08:10:06;;;;;;;0.50;0.30;;;;;;;23.44;86.30;100014.44;5006858;28;20456;-77
2021/07/27 08:12:33;;;;;;;0.40;0.30;;;;;;;23.50;87.42;100003.91;5004981;28;20464;-77
2021/07/27 08:14:59;;;;;;;0.63;0.63;;;;;;;23.09;89.38;100009.31;4994037;28;20863;-77
2021/07/27 08:17:26;;;;;;;0.70;0.50;;;;;;;22.86;89.59;100011.25;4992494;28;20444;-77
2021/07/27 08:19:53;;;;;;;0.40;0.20;;;;;;;23.03;89.66;100013.44;5005530;28;21025;-77
2021/07/27 08:22:19;;;;;;;1.57;0.67;;;;;;;23.26;88.93;100012.31;4992231;28;20878;-77
2021/07/27 08:24:46;;;;;;;1.17;1.17;;;;;;;23.12;90.16;100006.34;4998361;28;20506;-76
2021/07/27 08:27:13;;;;;;;0.70;0.70;;;;;;;23.44;88.06;100004.44;4999803;28;20551;-76
2021/07/27 08:29:39;;;;;;;2.00;0.43;;;;;;;23.38;88.45;100006.81;5011548;28;20514;-77
2021/07/27 08:32:10;;;;;;;2.57;0.73;;;;;;;23.50;87.26;100011.19;4998781;28;20554;-77
2021/07/27 08:34:38;;;;;;;1.73;1.67;;;;;;;23.57;87.20;100009.63;4988337;28;20460;-77
2021/07/27 08:37:05;;;;;;;0.63;0.57;;;;;;;23.43;88.18;100010.84;4986000;28;20962;-77
2021/07/27 08:39:32;;;;;;;0.70;0.70;;;;;;;23.30;86.92;100011.06;4999326;28;20946;-77
2021/07/27 08:42:03;;;;;;;0.40;0.30;;;;;;;23.96;85.32;100012.59;5010827;28;20946;-77
2021/07/27 08:44:34;;;;;;;0.80;0.80;;;;;;;23.76;84.31;100008.94;5000605;28;20826;-77
2021/07/27 08:47:05;;;;;;;1.37;1.27;;;;;;;23.49;86.78;100017.59;4999979;28;20493;-78
2021/07/27 08:49:33;;;;;;;0.50;0.40;;;;;;;23.84;85.50;100007.25;4993541;28;20472;-77
2021/07/27 08:52:00;;;;;;;0.73;0.73;;;;;;;23.81;85.01;100017.53;4992178;28;20530;-77
2021/07/27 08:54:27;;;;;;;1.23;1.23;;;;;;;23.70;84.68;100010.31;5001663;28;20424;-77
2021/07/27 08:56:54;;;;;;;0.57;0.50;;;;;;;23.99;85.40;100015.06;5005014;28;20536;-77
2021/07/27 08:59:22;;;;;;;0.50;0.30;;;;;;;24.14;84.88;100017.28;5003365;28;20494;-77
2021/07/27 09:01:52;;;;;;;0.40;0.30;;;;;;;24.89;82.45;100010.44;4998039;28;20800;-77
2021/07/27 09:04:28;;;;;;;0.50;0.50;;;;;;;25.13;79.58;100018.22;5001375;28;20806;-79
2021/07/27 09:07:03;;;;;;;0.40;0.30;;;;;;;25.17;77.73;100027.81;5009600;28;20493;-77
2021/07/27 09:09:34;;;;;;;0.50;0.40;;;;;;;24.80;78.53;100019.44;5000988;28;20441;-77
2021/07/27 09:12:03;;;;;;;0.70;0.70;;;;;;;25.66;77.15;100018.59;5001455;28;20416;-77
2021/07/27 09:14:30;;;;;;;1.10;1.10;;;;;;;25.44;77.12;100010.72;5008244;28;20431;-77
2021/07/27 09:16:58;;;;;;;0.50;0.40;;;;;;;26.13;76.92;100015.00;5004160;28;20443;-78
2021/07/27 09:19:25;;;;;;;3.27;2.57;;;;;;;25.55;77.03;100012.44;5002009;28;20431;-77
2021/07/27 09:22:06;;;;;;;0.40;0.23;;;;;;;24.99;77.32;100005.88;4997345;28;20937;-77
2021/07/27 09:24:33;;;;;;;0.40;0.30;;;;;;;25.24;77.53;100003.63;5013005;28;20469;-77
2021/07/27 09:27:05;;;;;;;0.40;0.30;;;;;;;25.72;77.88;99989.06;5003318;28;20512;-77
2021/07/27 09:29:45;;;;;;;1.07;0.87;;;;;;;26.10;76.15;99996.22;5015705;28;20514;-77
2021/07/27 09:32:20;;;;;;;0.50;0.30;;;;;;;25.88;76.36;100000.19;5004303;28;20457;-77
2021/07/27 09:34:47;;;;;;;0.53;0.40;;;;;;;25.57;77.01;100002.25;5018817;28;20502;-77
2021/07/27 09:37:18;;;;;;;0.40;0.30;;;;;;;26.15;74.47;100004.81;5005143;28;20451;-77
2021/07/27 09:39:45;;;;;;;0.40;0.30;;;;;;;26.63;71.46;99995.53;5007644;28;20424;-77
2021/07/27 09:42:13;;;;;;;0.47;0.30;;;;;;;26.93;71.15;99989.69;5000300;28;20423;-77
2021/07/27 09:44:40;;;;;;;0.47;0.30;;;;;;;26.79;72.36;99999.28;5004629;28;20946;-77
2021/07/27 09:47:07;;;;;;;5.77;0.73;;;;;;;26.92;71.46;99998.03;5008198;28;20475;-77
2021/07/27 09:49:34;;;;;;;1.93;0.90;;;;;;;26.57;72.04;99995.13;5004941;28;20485;-76
2021/07/27 09:52:00;;;;;;;0.57;0.40;;;;;;;26.69;72.30;100001.22;5001357;28;20434;-77
2021/07/27 09:54:27;;;;;;;1.27;1.27;;;;;;;26.54;72.57;100002.75;5004421;28;20457;-77
2021/07/27 09:56:55;;;;;;;0.50;0.30;;;;;;;26.43;72.13;99998.38;5008986;28;20530;-77
2021/07/27 09:59:24;;;;;;;0.40;0.30;;;;;;;25.93;73.71;100003.34;5005129;28;20536;-77
2021/07/27 10:01:53;;;;;;;0.40;0.30;;;;;;;26.20;74.14;100000.63;5001388;28;20423;-76
2021/07/27 10:04:25;;;;;;;1.63;1.53;;;;;;;26.69;72.03;100001.22;5003298;28;20518;-77
2021/07/27 10:06:53;;;;;;;0.50;0.40;;;;;;;26.39;72.30;100005.16;5008918;28;20538;-77
2021/07/27 10:09:24;;;;;;;0.40;0.30;;;;;;;26.22;73.07;100006.78;5007123;28;20441;-77
2021/07/27 10:11:52;;;;;;;0.70;0.70;;;;;;;26.05;73.54;99996.69;4995026;28;20816;-77
2021/07/27 10:14:19;;;;;;;0.43;0.30;;;;;;;26.10;73.44;99982.59;5000503;28;20428;-77
2021/07/27 10:16:47;;;;;;;0.50;0.40;;;;;;;26.50;71.63;99988.59;5001438;28;20451;-77
2021/07/27 10:19:20;;;;;;;0.40;0.30;;;;;;;26.13;71.23;99991.34;5000689;28;20423;-76
2021/07/27 10:22:06;;;;;;;0.43;0.30;;;;;;;26.21;71.90;99987.88;5006651;28;20764;-77
2021/07/27 10:24:41;;;;;;;0.40;0.30;;;;;;;25.98;75.13;99995.56;5007853;28;20437;-77
2021/07/27 10:27:21;;;;;;;0.50;0.40;;;;;;;26.37;73.33;99990.81;5007013;28;20948;-77
2021/07/27 10:30:03;;;;;;;0.90;0.90;;;;;;;26.12;73.54;99995.06;4983315;28;20834;-77
2021/07/27 10:32:30;;;;;;;0.40;0.23;;;;;;;25.92;72.56;99983.41;4998628;28;20445;-77
2021/07/27 10:34:58;;;;;;;0.40;0.30;;;;;;;25.88;71.94;99992.88;4999373;28;20811;-76
2021/07/27 10:37:36;;;;;;;2.30;0.90;;;;;;;26.12;72.71;99986.03;4999258;28;20469;-78
2021/07/27 10:40:03;;;;;;;3.83;0.70;;;;;;;26.29;73.46;99988.81;4989902;28;20513;-77
2021/07/27 10:42:40;;;;;;;0.70;0.70;;;;;;;26.57;72.18;99975.19;4989384;22;20453;-55
2021/07/27 10:45:17;;;;;;;0.60;0.60;;;;;;;26.88;71.09;99986.59;4987834;28;20448;-55
2021/07/27 10:47:51;;;;;;;0.40;0.30;;;;;;;27.08;69.59;99996.34;4976665;28;20498;-55
2021/07/27 10:50:25;;;;;;;0.87;0.87;;;;;;;26.51;70.98;99983.97;4989271;28;20449;-55
2021/07/27 10:53:13;;;;;;;0.53;0.53;;;;;;;26.41;71.69;99988.63;4994846;28;20449;-55
2021/07/27 10:55:45;;;;;;;0.93;0.93;;;;;;;26.28;73.13;99987.09;4968759;28;20460;-55
2021/07/27 10:58:17;;;;;;;0.60;0.60;;;;;;;26.57;70.85;99977.91;4993471;28;20442;-55
2021/07/27 11:00:44;;;;;;;0.50;0.50;;;;;;;27.05;68.73;99973.97;4994112;28;20420;-55
2021/07/27 11:03:11;;;;;;;0.73;0.73;;;;;;;27.33;68.71;99985.66;4994014;28;20453;-55
2021/07/27 11:05:38;;;;;;;0.67;0.63;;;;;;;27.33;66.87;99974.72;4984375;28;20523;-55
2021/07/27 11:08:04;;;;;;;0.47;0.30;;;;;;;26.99;68.81;99974.56;4993738;28;20493;-55
2021/07/27 11:10:31;;;;;;;1.07;0.93;;;;;;;27.01;70.11;99972.59;4994227;28;20929;-56
2021/07/27 11:12:58;;;;;;;0.50;0.40;;;;;;;26.96;69.08;99972.16;4996283;28;20442;-61
2021/07/27 11:15:29;;;;;;;0.40;0.27;;;;;;;27.39;68.37;99968.59;4996130;28;20526;-55
2021/07/27 11:17:58;;;;;;;0.60;0.60;;;;;;;27.14;70.34;99965.72;4995096;28;20808;-54
2021/07/27 11:20:35;;;;;;;0.97;0.97;;;;;;;27.18;69.24;99971.72;4993847;28;20432;-54
2021/07/27 11:23:14;;;;;;;1.53;0.93;;;;;;;27.10;66.13;99964.28;4993794;28;20461;-54
2021/07/27 11:25:41;;;;;;;0.70;0.67;;;;;;;27.51;66.14;99961.03;4993664;28;20471;-54
2021/07/27 11:28:14;;;;;;;0.90;0.90;;;;;;;27.80;66.14;99956.09;4993903;28;20497;-54
2021/07/27 11:30:42;;;;;;;1.20;1.03;;;;;;;27.53;65.48;99948.06;4991845;28;20445;-54
2021/07/27 11:33:13;;;;;;;0.77;0.77;;;;;;;27.43;64.94;99943.56;4994069;28;20457;-54
2021/07/27 11:35:43;;;;;;;0.50;0.40;;;;;;;27.43;64.51;99926.34;4990006;28;20529;-54
2021/07/27 11:38:11;;;;;;;0.57;0.57;;;;;;;27.58;67.08;99927.44;4993584;28;20445;-54
2021/07/27 11:40:37;;;;;;;0.50;0.30;;;;;;;27.40;67.30;99907.53;4993284;28;20428;-54
2021/07/27 11:43:05;;;;;;;0.50;0.37;;;;;;;28.01;67.09;99926.50;4993353;28;20461;-54
2021/07/27 11:45:44;;;;;;;0.60;0.50;;;;;;;27.43;66.98;99921.72;4993216;28;20933;-54
2021/07/27 11:48:11;;;;;;;1.17;0.77;;;;;;;27.37;67.65;99916.03;4993500;28;20493;-54
2021/07/27 11:50:43;;;;;;;0.40;0.30;;;;;;;27.14;70.70;99911.13;4993263;28;20450;-54
2021/07/27 11:53:23;;;;;;;0.50;0.30;;;;;;;27.26;67.75;99903.50;4993325;28;20512;-54
2021/07/27 11:55:50;;;;;;;0.40;0.30;;;;;;;26.72;67.26;99907.31;4968994;28;20776;-54
2021/07/27 11:58:27;;;;;;;5.23;2.20;;;;;;;27.17;64.44;99896.31;4993055;28;20820;-54
2021/07/27 12:00:58;;;;;;;0.77;0.77;;;;;;;27.13;65.21;99900.34;4993482;28;20880;-54